Time;durP1;ratioP1;P1;durP2;ratioP2;P2;SDS_P1;SDS_P2;PMS_P1;PMS_P2;Temp;Humidity;BMP_temperature;BMP_pressure;BME280_temperature;BME280_humidity;BME280_pressure;Samples;Min_cycle;Max_cycle;Signal;HPM_P1;HPM_P2
2023/07/10 00:00:48;;;;;;;8.02;3.85;;;;;;;20.72;70.05;101886.72;5071439;28;20048;-81
2023/07/10 00:03:13;;;;;;;8.80;4.25;;;;;;;20.67;70.83;101880.88;5071785;28;20108;-80
2023/07/10 00:05:39;;;;;;;7.15;4.03;;;;;;;20.72;70.10;101886.72;5071970;28;20036;-81
2023/07/10 00:08:06;;;;;;;8.48;4.13;;;;;;;20.56;70.42;101895.38;5071811;28;20067;-81
2023/07/10 00:10:32;;;;;;;10.32;4.55;;;;;;;20.57;70.26;101888.09;5070642;28;20024;-81
2023/07/10 00:13:00;;;;;;;5.68;3.85;;;;;;;20.66;70.57;101897.25;5073192;28;20074;-80
2023/07/10 00:15:26;;;;;;;6.50;3.97;;;;;;;20.50;70.55;101886.91;5071902;28;20546;-81
2023/07/10 00:17:52;;;;;;;6.40;3.67;;;;;;;20.46;71.31;101907.94;5071494;28;20053;-81
2023/07/10 00:20:24;;;;;;;11.30;4.75;;;;;;;20.35;72.26;101902.63;5071131;28;20373;-81
2023/07/10 00:22:52;;;;;;;6.30;4.78;;;;;;;20.28;75.22;101905.00;5071641;28;20418;-81
2023/07/10 00:25:18;;;;;;;7.20;4.28;;;;;;;20.43;75.59;101908.22;5070929;28;20450;-81
2023/07/10 00:27:45;;;;;;;7.13;4.55;;;;;;;20.37;77.76;101889.84;5072645;28;20063;-81
2023/07/10 00:30:31;;;;;;;8.45;4.32;;;;;;;20.40;77.13;101893.13;5070939;28;20056;-81
2023/07/10 00:32:59;;;;;;;5.75;4.10;;;;;;;20.31;75.54;101887.69;5072252;28;20492;-81
2023/07/10 00:35:27;;;;;;;8.85;4.22;;;;;;;20.32;76.39;101882.13;5071379;28;20029;-81
2023/07/10 00:38:01;;;;;;;7.38;4.35;;;;;;;20.13;77.95;101872.09;5070022;28;20036;-81
2023/07/10 00:40:32;;;;;;;8.68;4.40;;;;;;;20.14;76.83;101890.00;5071184;28;20539;-81
2023/07/10 00:43:06;;;;;;;9.32;4.43;;;;;;;20.15;76.45;101889.03;5071605;28;20023;-81
2023/07/10 00:45:32;;;;;;;7.07;4.20;;;;;;;20.13;77.39;101900.94;5071723;28;20036;-81
2023/07/10 00:48:23;;;;;;;6.97;4.05;;;;;;;20.08;77.59;101897.78;5073016;28;20082;-81
2023/07/10 00:50:50;;;;;;;7.53;4.15;;;;;;;20.17;77.28;101900.53;5067305;28;20055;-81
2023/07/10 00:53:27;;;;;;;8.85;4.25;;;;;;;20.20;76.23;101892.16;5070177;28;20070;-81
2023/07/10 00:55:56;;;;;;;10.57;4.53;;;;;;;20.18;75.81;101883.34;5070867;28;20123;-81
2023/07/10 00:58:27;;;;;;;8.18;4.45;;;;;;;20.14;76.63;101897.25;5070629;28;20396;-81
2023/07/10 01:01:08;;;;;;;6.18;3.90;;;;;;;20.07;76.40;101882.56;5071252;28;20035;-81
2023/07/10 01:03:35;;;;;;;6.78;4.32;;;;;;;19.99;77.37;101885.06;5072312;28;20044;-81
2023/07/10 01:06:13;;;;;;;7.53;4.35;;;;;;;20.06;76.33;101889.81;5070733;28;20039;-81
2023/07/10 01:08:41;;;;;;;5.80;4.13;;;;;;;20.20;76.23;101892.16;5071524;28;20020;-81
2023/07/10 01:11:07;;;;;;;10.05;5.00;;;;;;;20.01;76.51;101897.47;5071935;28;20035;-81
2023/07/10 01:13:34;;;;;;;6.22;4.20;;;;;;;20.02;77.19;101874.84;5070639;28;20028;-81
2023/07/10 01:16:02;;;;;;;7.63;4.50;;;;;;;19.88;76.96;101886.00;5071635;28;20395;-81
2023/07/10 01:18:27;;;;;;;7.03;4.35;;;;;;;20.15;76.07;101899.84;5071532;28;20481;-81
2023/07/10 01:21:12;;;;;;;6.18;4.15;;;;;;;20.12;75.47;101888.44;5071246;28;20112;-81
2023/07/10 01:23:38;;;;;;;5.60;4.30;;;;;;;20.21;74.39;101893.03;5070142;28;20490;-81
2023/07/10 01:26:04;;;;;;;5.65;4.25;;;;;;;20.16;75.34;101895.28;5069558;28;20021;-81
2023/07/10 01:28:38;;;;;;;5.55;4.68;;;;;;;20.08;75.50;101889.69;5066928;28;20033;-81
2023/07/10 01:31:07;;;;;;;8.38;4.45;;;;;;;20.02;74.67;101880.25;5069824;28;20024;-81
2023/07/10 01:33:37;;;;;;;6.00;4.15;;;;;;;19.97;76.12;101882.50;5069304;28;20560;-80
2023/07/10 01:36:04;;;;;;;6.75;4.45;;;;;;;20.01;75.53;101880.41;5069877;28;20040;-81
2023/07/10 01:38:45;;;;;;;9.38;4.95;;;;;;;19.95;75.42;101869.16;5054144;28;20071;-81
2023/07/10 01:41:31;;;;;;;8.70;4.47;;;;;;;20.01;75.27;101878.56;5069924;28;20024;-81
2023/07/10 01:44:00;;;;;;;6.32;4.50;;;;;;;19.93;75.30;101884.63;5069337;28;20020;-80
2023/07/10 01:46:28;;;;;;;7.13;4.50;;;;;;;19.91;76.10;101892.00;5070157;28;20025;-81
2023/07/10 01:48:57;;;;;;;9.57;4.40;;;;;;;19.95;75.82;101898.84;5070387;28;20115;-81
2023/07/10 01:51:23;;;;;;;9.20;4.57;;;;;;;19.84;75.36;101887.25;5070018;28;20048;-80
2023/07/10 01:53:50;;;;;;;9.27;5.00;;;;;;;19.94;75.06;101902.53;5069340;28;20157;-81
2023/07/10 01:56:19;;;;;;;5.97;4.57;;;;;;;19.98;75.02;101905.84;5075614;28;20087;-81
2023/07/10 01:58:47;;;;;;;7.55;4.85;;;;;;;19.85;75.70;101895.22;5074471;28;20024;-81
2023/07/10 02:01:13;;;;;;;6.75;4.50;;;;;;;19.85;75.93;101891.66;5068138;28;20032;-81
2023/07/10 02:03:38;;;;;;;5.13;4.32;;;;;;;19.70;75.62;101867.69;5059975;28;20108;-81
2023/07/10 02:06:04;;;;;;;7.90;5.32;;;;;;;19.73;76.03;101889.00;5071796;28;20489;-81
2023/07/10 02:08:30;;;;;;;5.95;4.45;;;;;;;19.67;77.26;101892.25;5072958;28;20029;-81
2023/07/10 02:10:55;;;;;;;5.70;4.43;;;;;;;19.78;76.76;101894.03;5074851;28;20537;-80
2023/07/10 02:13:20;;;;;;;7.32;4.95;;;;;;;19.81;76.97;101898.31;5074743;28;20494;-81
2023/07/10 02:15:46;;;;;;;6.63;4.32;;;;;;;19.78;76.92;101899.44;5071943;28;20483;-81
2023/07/10 02:18:11;;;;;;;8.63;4.63;;;;;;;19.76;77.17;101901.41;5072620;28;20032;-80
2023/07/10 02:20:39;;;;;;;6.75;4.90;;;;;;;19.37;77.86;101873.22;5074566;28;20035;-81
2023/07/10 02:23:04;;;;;;;5.30;4.18;;;;;;;19.57;77.83;101904.78;5074191;28;20020;-80
2023/07/10 02:25:30;;;;;;;9.68;4.60;;;;;;;19.38;78.69;101910.00;5073528;28;20032;-81
2023/07/10 02:27:55;;;;;;;6.70;4.30;;;;;;;19.45;78.49;101913.91;5073726;28;20082;-81
2023/07/10 02:30:22;;;;;;;7.95;4.53;;;;;;;19.45;79.26;101919.31;5075295;28;20491;-81
2023/07/10 02:32:47;;;;;;;8.18;4.72;;;;;;;19.38;79.14;101916.25;5073261;28;20094;-81
2023/07/10 02:35:13;;;;;;;8.10;5.22;;;;;;;19.37;79.83;101919.09;5073471;28;20028;-81
2023/07/10 02:37:38;;;;;;;7.43;6.35;;;;;;;19.31;80.33;101906.13;5074465;28;20020;-81
2023/07/10 02:40:04;;;;;;;9.45;6.18;;;;;;;19.34;80.67;101906.72;5073173;28;20047;-81
2023/07/10 02:42:32;;;;;;;16.58;8.10;;;;;;;19.17;81.51;101901.84;5105597;28;20031;-81
2023/07/10 02:44:58;;;;;;;10.48;6.75;;;;;;;19.20;81.70;101899.75;5107090;28;20492;-80
2023/07/10 02:47:23;;;;;;;8.32;7.03;;;;;;;19.20;82.27;101912.38;5075608;28;20025;-81
2023/07/10 02:49:48;;;;;;;9.27;7.47;;;;;;;19.06;82.88;101892.81;5074676;28;20066;-81
2023/07/10 02:52:16;;;;;;;11.35;8.38;;;;;;;19.20;82.81;101915.94;5074278;28;20026;-80
2023/07/10 02:54:42;;;;;;;13.32;7.50;;;;;;;19.15;83.20;101903.81;5072424;28;20115;-81
2023/07/10 02:57:12;;;;;;;12.77;7.97;;;;;;;19.21;82.74;101912.28;5073348;28;20120;-80
2023/07/10 02:59:39;;;;;;;12.73;8.20;;;;;;;19.09;83.87;101921.38;5072500;28;20538;-80
2023/07/10 03:02:05;;;;;;;8.52;7.72;;;;;;;19.03;84.25;101935.34;5073156;28;20063;-81
2023/07/10 03:04:31;;;;;;;10.23;9.00;;;;;;;19.03;84.37;101921.84;5072682;28;20060;-81
2023/07/10 03:06:56;;;;;;;11.18;9.05;;;;;;;18.92;84.90;101922.75;5071860;28;20406;-81
2023/07/10 03:09:21;;;;;;;15.35;9.48;;;;;;;18.92;84.73;101921.91;5104208;28;20333;-80
2023/07/10 03:11:47;;;;;;;11.20;9.38;;;;;;;18.91;84.78;101920.16;5074138;28;20021;-81
2023/07/10 03:14:12;;;;;;;12.88;9.35;;;;;;;18.78;85.96;101925.69;5070935;28;20062;-81
2023/07/10 03:16:38;;;;;;;12.30;9.23;;;;;;;18.70;85.76;101917.34;5105478;28;20052;-81
2023/07/10 03:19:03;;;;;;;10.27;9.23;;;;;;;18.86;85.54;101927.78;5072347;28;20107;-81
2023/07/10 03:21:29;;;;;;;10.68;9.57;;;;;;;18.50;85.67;101892.88;5073248;28;20067;-80
2023/07/10 03:23:56;;;;;;;12.48;10.27;;;;;;;18.79;85.92;101949.81;5073881;28;20055;-81
2023/07/10 03:26:22;;;;;;;11.18;9.95;;;;;;;18.74;85.84;101948.50;5073033;28;20445;-81
2023/07/10 03:29:02;;;;;;;13.85;10.45;;;;;;;18.74;86.02;101951.19;5072149;28;20100;-81
2023/07/10 03:31:28;;;;;;;12.32;9.75;;;;;;;18.55;86.65;101935.59;5067418;28;20395;-81
2023/07/10 03:33:53;;;;;;;12.57;10.30;;;;;;;18.56;86.01;101942.69;5072928;28;20044;-81
2023/07/10 03:36:18;;;;;;;10.55;9.40;;;;;;;18.65;85.80;101938.41;5072699;28;20028;-81
2023/07/10 03:38:44;;;;;;;12.45;9.88;;;;;;;18.67;85.68;101950.78;5074656;28;20107;-81
2023/07/10 03:41:09;;;;;;;13.70;10.45;;;;;;;18.67;85.52;101949.94;5072233;28;20025;-80
2023/07/10 03:43:34;;;;;;;12.50;10.27;;;;;;;18.49;85.84;101942.31;5072320;28;20063;-81
2023/07/10 03:46:00;;;;;;;14.45;9.70;;;;;;;18.52;85.43;101944.78;5071265;28;20123;-81
2023/07/10 03:48:25;;;;;;;12.75;10.27;;;;;;;18.50;85.74;101952.16;5071319;28;20024;-81
2023/07/10 03:50:51;;;;;;;10.80;9.70;;;;;;;18.47;85.60;101948.81;5071159;28;20032;-81
2023/07/10 03:53:16;;;;;;;12.32;10.25;;;;;;;18.19;86.29;101915.13;5071528;28;20066;-81
2023/07/10 03:55:55;;;;;;;11.35;10.25;;;;;;;18.35;86.38;101961.41;5070912;28;20056;-81
2023/07/10 03:58:23;;;;;;;12.88;11.18;;;;;;;18.31;85.81;101946.47;5059778;28;20078;-81
2023/07/10 04:00:53;;;;;;;12.88;9.88;;;;;;;18.31;86.10;101951.84;5071116;28;20048;-81
2023/07/10 04:03:24;;;;;;;13.02;10.40;;;;;;;18.32;86.36;101967.91;5068324;28;20476;-80
2023/07/10 04:05:52;;;;;;;12.10;10.27;;;;;;;18.25;86.10;101965.81;5066213;28;20027;-81
2023/07/10 04:08:21;;;;;;;14.70;11.05;;;;;;;18.08;86.08;101934.78;5071469;28;20082;-80
2023/07/10 04:10:51;;;;;;;13.00;11.18;;;;;;;18.22;87.28;101977.66;5093635;28;20025;-81
2023/07/10 04:13:17;;;;;;;15.02;11.25;;;;;;;18.28;86.72;101979.03;5071358;28;20020;-80
2023/07/10 04:15:57;;;;;;;14.48;12.52;;;;;;;18.23;87.17;101987.44;5072289;28;20017;-81
2023/07/10 04:18:26;;;;;;;13.30;11.90;;;;;;;18.30;86.88;101977.94;5070759;28;20025;-81
2023/07/10 04:20:51;;;;;;;17.45;12.85;;;;;;;18.34;86.65;101963.25;5071876;28;20031;-81
2023/07/10 04:23:18;;;;;;;13.27;11.93;;;;;;;18.20;87.33;101970.69;5070808;28;20017;-81
2023/07/10 04:25:45;;;;;;;14.55;12.95;;;;;;;18.32;87.05;101975.13;5105514;28;20357;-81
2023/07/10 04:28:10;;;;;;;14.77;13.00;;;;;;;18.25;87.54;101965.81;5104564;28;20024;-81
2023/07/10 04:30:35;;;;;;;13.80;12.32;;;;;;;18.39;87.38;101971.84;5071672;28;20021;-81
2023/07/10 04:33:03;;;;;;;17.33;12.82;;;;;;;18.45;86.84;101956.19;5072493;28;20047;-81
2023/07/10 04:35:32;;;;;;;14.45;12.98;;;;;;;18.59;85.82;101962.19;5072368;28;20081;-81
2023/07/10 04:38:00;;;;;;;16.60;13.27;;;;;;;18.51;86.62;101966.47;5072905;28;20024;-81
2023/07/10 04:40:25;;;;;;;17.33;13.40;;;;;;;18.52;86.90;101968.16;5104841;28;20267;-81
2023/07/10 04:42:51;;;;;;;16.00;13.25;;;;;;;18.55;86.66;101973.31;5071248;28;20020;-80
2023/07/10 04:45:17;;;;;;;14.65;12.30;;;;;;;18.65;86.07;101979.72;5077897;28;20121;-80
2023/07/10 04:47:48;;;;;;;15.63;12.38;;;;;;;18.54;86.84;101971.59;5075196;28;20054;-81
2023/07/10 04:50:13;;;;;;;17.92;13.02;;;;;;;18.53;86.96;101980.66;5070049;28;20028;-81
2023/07/10 04:52:39;;;;;;;15.93;13.48;;;;;;;18.34;87.25;101976.72;5072213;28;20032;-81
2023/07/10 04:55:04;;;;;;;15.80;12.98;;;;;;;18.35;87.11;101962.28;5069889;28;20394;-81
2023/07/10 04:57:32;;;;;;;16.40;14.43;;;;;;;18.47;86.98;101979.31;5070868;28;20040;-81
2023/07/10 05:00:00;;;;;;;18.30;12.68;;;;;;;18.46;87.48;101982.13;5070802;28;20475;-81
2023/07/10 05:02:25;;;;;;;14.40;12.70;;;;;;;18.49;87.16;101995.34;5078329;28;20398;-81
2023/07/10 05:04:53;;;;;;;14.30;12.90;;;;;;;18.54;86.72;101985.09;5074074;28;20024;-81
2023/07/10 05:07:18;;;;;;;14.98;13.32;;;;;;;18.58;86.94;101984.69;5070501;28;20032;-80
2023/07/10 05:09:44;;;;;;;15.57;13.85;;;;;;;18.56;86.78;101994.78;5070428;28;20399;-81
2023/07/10 05:12:09;;;;;;;17.40;13.38;;;;;;;18.56;86.87;101996.56;5104059;28;20118;-81
2023/07/10 05:14:37;;;;;;;14.00;12.48;;;;;;;18.72;86.03;101993.56;5071364;28;20025;-81
2023/07/10 05:17:04;;;;;;;18.95;14.50;;;;;;;18.57;86.15;101990.22;5072336;28;20103;-81
2023/07/10 05:19:34;;;;;;;17.15;12.98;;;;;;;18.54;86.46;102004.78;5073125;28;20020;-81
2023/07/10 05:22:00;;;;;;;15.48;13.32;;;;;;;18.65;86.21;102000.38;5089283;28;20055;-81
2023/07/10 05:24:28;;;;;;;18.27;13.30;;;;;;;18.75;85.94;102009.50;5059255;28;20024;-81
2023/07/10 05:26:53;;;;;;;14.23;12.57;;;;;;;18.74;85.71;102000.56;5070216;28;20036;-81
2023/07/10 05:29:19;;;;;;;14.32;12.80;;;;;;;18.77;85.11;102000.31;5066519;28;20392;-81
2023/07/10 05:31:44;;;;;;;15.90;11.85;;;;;;;18.78;85.01;102004.72;5071457;28;20023;-81
2023/07/10 05:34:09;;;;;;;15.27;11.90;;;;;;;18.84;84.94;102015.03;5071928;28;20048;-80
2023/07/10 05:36:37;;;;;;;13.77;11.13;;;;;;;18.92;85.19;102016.25;5071600;28;20134;-81
2023/07/10 05:39:03;;;;;;;15.40;10.88;;;;;;;18.93;84.24;102004.50;5070901;28;20029;-81
2023/07/10 05:41:29;;;;;;;14.07;10.63;;;;;;;18.94;83.72;102009.78;5070785;28;20384;-81
2023/07/10 05:43:55;;;;;;;13.02;10.07;;;;;;;19.14;83.72;102010.84;5070888;28;20032;-81
2023/07/10 05:46:20;;;;;;;13.02;10.43;;;;;;;19.16;83.63;101992.69;5072028;28;20027;-81
2023/07/10 05:48:46;;;;;;;12.52;9.77;;;;;;;19.36;82.89;102003.72;5072085;28;20075;-80
2023/07/10 05:51:11;;;;;;;10.95;9.73;;;;;;;19.36;82.08;102003.72;5071041;28;20029;-80
2023/07/10 05:53:37;;;;;;;12.50;9.32;;;;;;;19.48;82.22;102003.56;5071083;28;20703;-80
2023/07/10 05:56:03;;;;;;;10.88;9.38;;;;;;;19.59;82.33;102008.09;5071284;28;20455;-81
2023/07/10 05:58:30;;;;;;;12.38;8.80;;;;;;;19.59;80.92;102005.38;5072329;28;20032;-81
2023/07/10 06:01:01;;;;;;;13.38;8.57;;;;;;;19.63;81.93;102006.84;5071497;28;20020;-81
2023/07/10 06:03:32;;;;;;;10.13;8.07;;;;;;;19.70;80.89;102005.34;5079051;28;20028;-81
2023/07/10 06:06:01;;;;;;;8.93;7.43;;;;;;;19.87;80.11;102013.91;5083529;28;20131;-81
2023/07/10 06:08:28;;;;;;;10.98;7.80;;;;;;;19.86;80.08;102013.03;5073172;28;20021;-81
2023/07/10 06:10:56;;;;;;;9.23;7.43;;;;;;;19.83;78.96;102009.75;5071797;28;20020;-81
2023/07/10 06:13:22;;;;;;;9.40;6.72;;;;;;;19.93;79.42;102014.22;5071204;28;20029;-80
2023/07/10 06:15:53;;;;;;;11.63;6.75;;;;;;;20.04;79.11;102002.53;5071828;28;20369;-81
2023/07/10 06:18:19;;;;;;;11.13;6.70;;;;;;;20.06;77.37;102018.59;5069928;28;20024;-81
2023/07/10 06:20:51;;;;;;;10.05;6.75;;;;;;;20.15;75.33;102012.44;5071031;28;20119;-81
2023/07/10 06:23:19;;;;;;;9.90;5.90;;;;;;;20.30;75.36;102023.78;5064338;28;20400;-82
2023/07/10 06:25:51;;;;;;;10.13;6.60;;;;;;;20.23;75.38;102018.00;5052421;28;20492;-82
2023/07/10 06:28:18;;;;;;;13.95;6.82;;;;;;;20.39;74.27;102033.78;5085056;28;20325;-84
2023/07/10 06:30:52;;;;;;;17.25;7.15;;;;;;;20.26;74.23;102022.31;5057681;28;20036;-84
2023/07/10 06:33:17;;;;;;;12.95;6.55;;;;;;;20.34;73.23;102033.31;5072177;28;20044;-82
2023/07/10 06:35:45;;;;;;;9.95;6.40;;;;;;;20.43;74.04;102038.78;5072373;28;20390;-87
2023/07/10 06:38:11;;;;;;;11.13;6.15;;;;;;;20.47;72.42;102033.13;5071222;28;20027;-85
2023/07/10 06:40:36;;;;;;;9.98;6.78;;;;;;;20.48;72.80;102046.50;5106262;28;20029;-86
2023/07/10 06:43:04;;;;;;;10.32;6.57;;;;;;;20.45;72.30;102029.72;5109196;28;20086;-85
2023/07/10 06:45:29;;;;;;;10.38;6.40;;;;;;;20.58;71.48;102033.09;5108529;28;20024;-85
2023/07/10 06:47:57;;;;;;;10.77;6.20;;;;;;;20.66;72.40;102035.13;5074967;28;20035;-86
2023/07/10 06:50:22;;;;;;;10.55;5.65;;;;;;;20.79;71.37;102043.88;5076373;28;20044;-90
2023/07/10 06:52:47;;;;;;;10.77;6.38;;;;;;;20.75;70.29;102027.06;5075706;28;20494;-87
2023/07/10 06:55:16;;;;;;;7.43;5.55;;;;;;;20.94;70.35;102038.97;5108765;28;20037;-86
2023/07/10 06:57:42;;;;;;;14.68;5.70;;;;;;;21.03;69.26;102032.72;5074569;28;20395;-86
2023/07/10 07:00:10;;;;;;;11.18;5.43;;;;;;;21.20;67.31;102042.91;5072587;28;20035;-86
2023/07/10 07:02:36;;;;;;;10.57;4.90;;;;;;;21.22;67.81;102038.22;5074690;28;20035;-85
2023/07/10 07:05:03;;;;;;;9.40;5.35;;;;;;;21.27;66.22;102035.13;5074316;28;20057;-85
2023/07/10 07:07:28;;;;;;;10.02;4.95;;;;;;;21.33;64.94;102034.56;5074113;28;20497;-84
2023/07/10 07:09:54;;;;;;;9.75;4.43;;;;;;;21.33;65.33;102042.69;5074362;28;20162;-82
2023/07/10 07:12:20;;;;;;;8.57;4.70;;;;;;;21.33;65.15;102039.97;5073896;28;20028;-82
2023/07/10 07:14:45;;;;;;;9.13;4.50;;;;;;;21.37;64.81;102046.84;5075444;28;20364;-83
2023/07/10 07:17:12;;;;;;;10.18;4.93;;;;;;;21.41;64.83;102042.00;5074219;28;20028;-82
2023/07/10 07:19:37;;;;;;;9.60;4.82;;;;;;;21.44;63.80;102039.03;5074261;28;20115;-84
2023/07/10 07:22:03;;;;;;;10.85;4.63;;;;;;;21.49;64.04;102053.00;5074574;28;20017;-83
2023/07/10 07:24:33;;;;;;;8.43;5.00;;;;;;;21.39;64.49;102047.59;5073362;28;20375;-84
2023/07/10 07:27:01;;;;;;;11.90;5.10;;;;;;;21.37;64.74;102043.31;5073067;28;20546;-82
2023/07/10 07:29:27;;;;;;;9.68;5.10;;;;;;;21.46;64.48;102053.28;5077349;28;20035;-85
2023/07/10 07:31:53;;;;;;;10.82;5.25;;;;;;;21.64;64.77;102056.19;5071706;28;20020;-83
2023/07/10 07:34:18;;;;;;;10.48;5.50;;;;;;;21.41;64.38;102031.19;5074615;28;20051;-84
2023/07/10 07:36:48;;;;;;;11.00;5.80;;;;;;;21.62;65.13;102061.75;5069732;28;20033;-83
2023/07/10 07:39:16;;;;;;;9.27;5.13;;;;;;;21.52;64.91;102067.13;5073398;28;20033;-84
2023/07/10 07:41:41;;;;;;;13.18;5.97;;;;;;;21.67;65.74;102053.19;5072944;28;20024;-83
2023/07/10 07:44:07;;;;;;;11.13;5.40;;;;;;;21.75;64.13;102059.63;5074631;28;20059;-83
2023/07/10 07:46:33;;;;;;;9.63;5.40;;;;;;;21.74;64.23;102059.78;5104819;28;20097;-82
2023/07/10 07:48:58;;;;;;;10.98;6.32;;;;;;;21.77;63.78;102065.75;5086636;28;20040;-83
2023/07/10 07:51:24;;;;;;;9.32;5.95;;;;;;;21.85;64.49;102065.03;5077395;28;20031;-83
2023/07/10 07:54:03;;;;;;;10.70;5.50;;;;;;;21.89;64.84;102066.50;5085599;28;20038;-83
2023/07/10 07:56:29;;;;;;;12.32;5.65;;;;;;;21.86;63.31;102061.34;5085173;28;20028;-83
2023/07/10 07:58:54;;;;;;;13.38;5.53;;;;;;;21.88;63.70;102047.66;5068809;28;20029;-83
2023/07/10 08:01:19;;;;;;;13.43;5.60;;;;;;;21.91;61.93;102055.50;5075002;28;20031;-83
2023/07/10 08:03:45;;;;;;;10.02;5.53;;;;;;;21.94;62.02;102033.53;5074616;28;20107;-83
2023/07/10 08:06:10;;;;;;;12.90;5.38;;;;;;;22.10;61.79;102043.84;5073325;28;20025;-83
2023/07/10 08:08:36;;;;;;;8.00;4.70;;;;;;;22.03;60.89;102021.88;5073605;28;20476;-82
2023/07/10 08:11:06;;;;;;;9.10;4.35;;;;;;;22.16;60.48;102037.84;5071977;28;20082;-83
2023/07/10 08:13:31;;;;;;;11.32;4.78;;;;;;;22.22;60.87;102038.16;5070559;28;20021;-83
2023/07/10 08:15:57;;;;;;;11.52;4.50;;;;;;;22.33;60.10;102045.28;5073573;28;20179;-83
2023/07/10 08:18:22;;;;;;;9.23;4.57;;;;;;;22.35;58.87;102045.97;5068748;28;20036;-83
2023/07/10 08:20:50;;;;;;;8.15;4.07;;;;;;;22.36;59.50;102041.44;5070714;28;20036;-82
2023/07/10 08:23:15;;;;;;;8.55;4.68;;;;;;;22.54;59.75;102052.38;5076833;28;20035;-82
2023/07/10 08:25:41;;;;;;;8.93;4.55;;;;;;;22.72;59.71;102049.78;5073603;28;20024;-83
2023/07/10 08:28:08;;;;;;;11.98;4.80;;;;;;;22.65;59.38;102047.66;5076905;28;20032;-83
2023/07/10 08:30:34;;;;;;;7.68;4.70;;;;;;;22.65;59.38;102053.06;5071072;28;20032;-83
2023/07/10 08:32:59;;;;;;;9.60;4.38;;;;;;;22.83;59.52;102055.88;5071128;28;20411;-82
2023/07/10 08:35:25;;;;;;;13.85;5.15;;;;;;;22.84;59.20;102049.44;5070780;28;20031;-83
2023/07/10 08:37:50;;;;;;;10.20;4.53;;;;;;;22.86;57.82;102052.03;5073734;28;20020;-83
2023/07/10 08:40:31;;;;;;;16.23;4.40;;;;;;;23.09;57.36;102053.41;5070647;28;20062;-83
2023/07/10 08:43:01;;;;;;;12.35;4.75;;;;;;;22.99;56.84;102051.72;5073756;28;20023;-84
2023/07/10 08:45:37;;;;;;;21.48;9.13;;;;;;;23.12;57.13;102041.38;5066894;28;20060;-83
2023/07/10 08:48:31;;;;;;;30.35;15.45;;;;;;;23.16;57.07;102050.06;5063444;28;20040;-82
2023/07/10 08:51:03;;;;;;;9.98;3.90;;;;;;;23.18;55.97;102053.47;5060387;28;20416;-83
2023/07/10 08:53:32;;;;;;;16.50;6.00;;;;;;;23.24;55.60;102037.47;5071822;28;20055;-82
2023/07/10 08:56:05;;;;;;;9.18;4.10;;;;;;;23.36;56.61;102043.56;5072284;28;20024;-82
2023/07/10 08:58:37;;;;;;;12.70;4.45;;;;;;;23.39;56.19;102047.81;5070715;28;20555;-83
2023/07/10 09:01:10;;;;;;;7.28;3.13;;;;;;;23.31;54.66;102013.28;5068138;28;20108;-82
2023/07/10 09:03:35;;;;;;;7.32;3.40;;;;;;;23.48;54.16;102050.47;5068989;28;20381;-83
2023/07/10 09:06:03;;;;;;;9.13;3.08;;;;;;;23.54;54.71;102055.28;5072308;28;20025;-83
2023/07/10 09:08:31;;;;;;;7.00;3.22;;;;;;;23.51;54.22;102035.75;5088763;28;20036;-84
2023/07/10 09:11:01;;;;;;;7.53;3.40;;;;;;;23.61;52.66;102063.69;5070723;28;20028;-81
2023/07/10 09:13:43;;;;;;;8.18;3.75;;;;;;;23.53;54.21;102029.16;5071636;28;20518;-78
2023/07/10 09:16:18;;;;;;;8.80;3.42;;;;;;;23.69;53.33;102052.06;5070765;28;20035;-77
2023/07/10 09:18:57;;;;;;;11.15;4.00;;;;;;;23.80;54.62;102052.72;5051548;28;20059;-79
2023/07/10 09:21:29;;;;;;;9.68;3.55;;;;;;;23.75;53.71;102052.31;5067036;28;20127;-80
2023/07/10 09:23:55;;;;;;;7.97;3.17;;;;;;;23.82;50.67;102043.56;5070878;28;20066;-78
2023/07/10 09:26:27;;;;;;;9.13;3.28;;;;;;;23.96;52.53;102059.31;5072564;28;20056;-80
2023/07/10 09:29:21;;;;;;;6.70;3.40;;;;;;;23.89;52.11;102055.53;5071293;28;20070;-81
2023/07/10 09:31:53;;;;;;;9.48;2.88;;;;;;;23.99;52.00;102053.59;5072603;28;20074;-82
2023/07/10 09:34:29;;;;;;;8.15;3.05;;;;;;;24.06;50.19;102053.81;5071234;28;20124;-80
2023/07/10 09:36:56;;;;;;;6.07;3.03;;;;;;;23.88;50.49;102056.53;5051683;28;20028;-78
2023/07/10 09:39:36;;;;;;;7.57;3.45;;;;;;;23.96;50.71;102056.59;5058892;28;20032;-79
2023/07/10 09:42:04;;;;;;;8.20;4.07;;;;;;;23.99;50.35;102057.16;5073330;28;20454;-79
2023/07/10 09:44:37;;;;;;;9.37;3.57;;;;;;;24.10;49.90;102055.22;5072054;28;20025;-79
2023/07/10 09:47:11;;;;;;;13.60;3.50;;;;;;;24.23;50.97;102055.66;5066016;28;20382;-82
2023/07/10 09:49:47;;;;;;;10.60;3.50;;;;;;;24.12;50.76;102029.59;5064627;28;20036;-79
2023/07/10 09:52:26;;;;;;;8.60;3.50;;;;;;;24.39;51.42;102052.25;5071153;28;20032;-80
2023/07/10 09:55:13;;;;;;;6.22;3.50;;;;;;;24.35;51.52;102048.13;5071747;28;20040;-83
2023/07/10 09:57:54;;;;;;;6.63;2.80;;;;;;;24.30;49.95;102058.63;5052716;28;20051;-90
2023/07/10 10:00:22;;;;;;;9.35;2.97;;;;;;;24.26;49.88;102064.34;5072193;28;20048;-89
2023/07/10 10:03:02;;;;;;;8.65;2.90;;;;;;;24.15;48.72;102042.00;5073606;28;20023;-89
2023/07/10 10:05:29;;;;;;;6.10;2.80;;;;;;;24.01;48.81;102060.56;5074394;28;20052;-90
2023/07/10 10:08:04;;;;;;;9.15;3.10;;;;;;;23.93;49.77;102033.31;5070218;28;20025;-89
2023/07/10 10:10:37;;;;;;;8.40;3.67;;;;;;;24.22;51.11;102049.38;5061903;28;20383;-88
2023/07/10 10:13:26;;;;;;;9.25;3.13;;;;;;;24.33;49.63;102044.72;5072210;28;20052;-90
2023/07/10 10:16:03;;;;;;;9.10;3.17;;;;;;;24.28;49.53;102019.84;5073178;28;20028;-89
2023/07/10 10:18:47;;;;;;;5.63;2.70;;;;;;;24.59;49.30;102052.91;5075378;28;20020;-89
2023/07/10 10:21:18;;;;;;;7.90;3.83;;;;;;;24.69;48.93;102054.53;5075395;28;20521;-85
2023/07/10 10:23:49;;;;;;;6.50;2.85;;;;;;;24.77;48.17;102052.88;5075456;28;20035;-86
2023/07/10 10:26:51;;;;;;;8.75;3.00;;;;;;;24.86;48.14;102027.41;5073620;28;20119;-88
2023/07/10 10:29:41;;;;;;;8.50;3.50;;;;;;;24.89;48.32;102049.72;5072321;28;20496;-87
2023/07/10 10:32:12;;;;;;;11.70;3.47;;;;;;;24.90;47.89;102045.13;5075090;28;20036;-85
2023/07/10 10:34:50;;;;;;;8.13;3.45;;;;;;;24.85;48.27;102059.19;5074901;28;20056;-87
2023/07/10 10:37:21;;;;;;;7.23;3.00;;;;;;;24.75;48.70;102041.31;5076592;28;20052;-85
2023/07/10 10:40:01;;;;;;;7.03;3.30;;;;;;;24.79;48.86;102045.38;5073205;28;20028;-88
2023/07/10 10:42:41;;;;;;;9.60;3.67;;;;;;;24.86;49.46;102038.31;5076871;28;20052;-86
2023/07/10 10:45:21;;;;;;;10.35;3.78;;;;;;;24.58;49.44;102045.78;5075260;28;20035;-84
2023/07/10 10:48:10;;;;;;;8.95;3.40;;;;;;;24.43;48.97;102040.91;5066059;28;20078;-86
2023/07/10 10:50:50;;;;;;;9.13;3.13;;;;;;;24.68;49.93;102039.22;5071450;28;20380;-83
2023/07/10 10:53:24;;;;;;;8.70;3.05;;;;;;;24.70;48.08;102045.34;5075503;28;20025;-84
2023/07/10 10:56:04;;;;;;;9.65;2.97;;;;;;;24.64;48.02;102045.97;5075345;28;20054;-83
2023/07/10 10:58:55;;;;;;;9.15;3.40;;;;;;;24.58;48.89;102046.63;5072618;28;20024;-89
2023/07/10 11:01:39;;;;;;;5.97;3.00;;;;;;;24.82;48.70;102056.81;5076459;28;20115;-89
2023/07/10 11:04:36;;;;;;;7.35;3.30;;;;;;;25.03;48.28;102070.06;5073826;28;20024;-91
2023/07/10 11:07:05;;;;;;;7.20;3.53;;;;;;;24.87;47.42;102069.94;5073475;28;20488;-88
2023/07/10 11:09:52;;;;;;;8.15;3.20;;;;;;;25.04;48.89;102066.31;5071286;28;20024;-89
2023/07/10 11:12:25;;;;;;;9.40;2.88;;;;;;;25.03;49.28;102063.72;5074279;28;20119;-88
2023/07/10 11:14:58;;;;;;;11.70;3.97;;;;;;;24.99;47.03;102067.81;5074260;28;20036;-88
2023/07/10 11:17:26;;;;;;;9.55;3.85;;;;;;;24.91;46.65;102064.03;5074526;28;20024;-89
2023/07/10 11:19:53;;;;;;;8.60;3.70;;;;;;;24.79;47.12;102061.72;5071900;28;20036;-88
2023/07/10 11:22:26;;;;;;;6.28;2.90;;;;;;;24.80;47.59;102042.53;5072427;28;20055;-87
2023/07/10 11:24:55;;;;;;;9.45;3.05;;;;;;;24.80;47.71;102020.75;5057046;28;20032;-87
2023/07/10 11:27:27;;;;;;;6.32;3.00;;;;;;;25.12;48.11;102038.28;5055371;28;20025;-88
2023/07/10 11:30:12;;;;;;;8.00;2.78;;;;;;;25.29;46.63;102039.19;5073127;28;20031;-86